createdAt,value
2022-08-21T00:03:56.448Z,1.80
2022-08-21T00:08:00.561Z,2.10
2022-08-21T00:12:02.828Z,2.55
2022-08-21T00:16:06.331Z,2.20
2022-08-21T00:20:11.726Z,2.10
2022-08-21T00:24:13.851Z,2.55
2022-08-21T00:28:16.844Z,2.08
2022-08-21T00:32:27.194Z,2.13
2022-08-21T00:36:30.487Z,2.28
2022-08-21T00:40:55.977Z,2.67
2022-08-21T00:44:59.128Z,2.55
2022-08-21T00:49:01.231Z,2.50
2022-08-21T00:53:06.868Z,2.53
2022-08-21T00:57:14.963Z,2.33
2022-08-21T01:01:18.091Z,2.90
2022-08-21T01:05:21.463Z,2.80
2022-08-21T01:09:23.913Z,2.33
2022-08-21T01:13:28.611Z,2.45
2022-08-21T01:17:32.053Z,2.45
2022-08-21T01:21:34.534Z,2.00
2022-08-21T01:25:37.381Z,2.53
2022-08-21T01:30:02.198Z,2.15
2022-08-21T01:34:10.526Z,2.88
2022-08-21T01:38:13.250Z,2.67
2022-08-21T01:42:15.564Z,2.75
2022-08-21T01:46:18.018Z,2.50
2022-08-21T01:50:21.560Z,2.83
2022-08-21T01:54:23.900Z,3.17
2022-08-21T01:58:26.088Z,2.65
2022-08-21T02:02:28.240Z,2.95
2022-08-21T02:06:30.574Z,2.83
2022-08-21T02:10:33.745Z,2.92
2022-08-21T02:14:38.098Z,2.97
2022-08-21T02:18:41.999Z,3.50
2022-08-21T02:22:44.207Z,3.38
2022-08-21T02:26:47.242Z,3.10
2022-08-21T02:30:50.921Z,2.70
2022-08-21T02:34:54.537Z,2.75
2022-08-21T02:38:57.382Z,2.80
2022-08-21T02:43:00.605Z,2.50
2022-08-21T02:47:02.837Z,2.65
2022-08-21T02:51:09.220Z,2.78
2022-08-21T02:55:11.614Z,3.08
2022-08-21T02:59:13.749Z,3.08
2022-08-21T03:03:15.887Z,3.20
2022-08-21T03:07:18.098Z,2.92
2022-08-21T03:11:21.681Z,2.72
2022-08-21T03:15:25.672Z,2.72
2022-08-21T03:19:28.638Z,2.88
2022-08-21T03:23:32.781Z,3.20
2022-08-21T03:27:35.993Z,3.08
2022-08-21T03:31:40.935Z,2.85
2022-08-21T03:36:01.733Z,3.00
2022-08-21T03:40:06.254Z,3.10
2022-08-21T03:44:09.202Z,2.72
2022-08-21T03:48:11.616Z,2.25
2022-08-21T03:52:17.105Z,2.97
2022-08-21T03:56:19.739Z,2.47
2022-08-21T04:00:22.773Z,3.00
2022-08-21T04:04:25.252Z,3.13
2022-08-21T04:08:27.513Z,2.70
2022-08-21T04:12:29.659Z,3.13
2022-08-21T04:16:32.007Z,3.17
2022-08-21T04:20:34.609Z,3.80
2022-08-21T04:24:37.079Z,3.03
2022-08-21T04:28:39.175Z,2.95
2022-08-21T04:32:45.095Z,3.30
2022-08-21T04:36:47.309Z,3.05
2022-08-21T04:40:52.227Z,3.80
2022-08-21T04:44:55.451Z,3.20
2022-08-21T04:48:58.536Z,3.17
2022-08-21T04:53:01.335Z,3.40
2022-08-21T04:57:08.268Z,3.05
2022-08-21T05:01:17.103Z,3.10
2022-08-21T05:05:19.302Z,3.33
2022-08-21T05:09:22.695Z,2.65
2022-08-21T05:13:24.904Z,3.47
2022-08-21T05:17:27.202Z,3.33
2022-08-21T05:21:29.548Z,3.17
2022-08-21T05:25:32.479Z,3.50
2022-08-21T05:29:39.851Z,3.10
2022-08-21T05:33:46.393Z,2.78
2022-08-21T05:37:48.467Z,2.80
2022-08-21T05:41:58.570Z,2.72
2022-08-21T05:46:00.778Z,2.88
2022-08-21T05:50:03.471Z,2.53
2022-08-21T05:54:05.664Z,2.65
2022-08-21T05:58:07.794Z,2.38
2022-08-21T06:02:12.720Z,2.88
2022-08-21T06:06:18.692Z,2.72
2022-08-21T06:10:21.412Z,2.60
2022-08-21T06:14:23.822Z,2.70
2022-08-21T06:18:26.402Z,2.42
2022-08-21T06:22:29.826Z,2.55
2022-08-21T06:26:32.550Z,2.75
2022-08-21T06:30:35.817Z,2.38
2022-08-21T06:34:39.203Z,3.17
2022-08-21T06:38:41.512Z,2.43
2022-08-21T06:42:54.891Z,2.00
2022-08-21T06:46:59.323Z,2.72
2022-08-21T06:51:01.927Z,2.20
2022-08-21T06:55:08.042Z,2.50
2022-08-21T06:59:10.114Z,2.10
2022-08-21T07:03:40.452Z,2.00
2022-08-21T07:07:42.556Z,1.70
2022-08-21T07:16:10.005Z,2.60
2022-08-21T07:20:13.380Z,1.73
2022-08-21T07:24:15.743Z,1.93
2022-08-21T07:28:19.530Z,1.80
2022-08-21T07:32:21.745Z,1.60
2022-08-21T07:36:24.642Z,2.50
2022-08-21T07:40:26.819Z,1.60
2022-08-21T07:44:28.926Z,1.90
2022-08-21T07:48:31.249Z,1.42
2022-08-21T07:52:33.878Z,1.70
2022-08-21T07:56:39.539Z,2.15
2022-08-21T08:00:42.629Z,2.28
2022-08-21T08:04:51.142Z,1.90
2022-08-21T08:08:57.319Z,2.05
2022-08-21T08:13:01.097Z,1.80
2022-08-21T08:21:16.646Z,1.83
2022-08-21T08:25:20.926Z,2.13
2022-08-21T08:29:28.893Z,1.98
2022-08-21T08:33:35.414Z,2.10
2022-08-21T08:37:41.904Z,2.05
2022-08-21T08:41:47.832Z,1.90
2022-08-21T08:45:54.540Z,1.92
2022-08-21T08:50:01.772Z,2.33
2022-08-21T08:54:10.196Z,2.30
2022-08-21T08:58:28.243Z,1.88
2022-08-21T09:02:31.045Z,2.50
2022-08-21T09:06:49.233Z,2.67
2022-08-21T09:10:57.311Z,2.20
2022-08-21T09:15:21.277Z,2.60
2022-08-21T09:24:17.763Z,1.77
2022-08-21T09:28:20.003Z,2.35
2022-08-21T09:32:36.889Z,2.40
2022-08-21T09:36:52.098Z,1.92
2022-08-21T09:41:08.713Z,2.38
2022-08-21T09:45:19.711Z,2.22
2022-08-21T09:49:30.069Z,2.05
2022-08-21T09:53:35.858Z,2.13
2022-08-21T09:57:46.838Z,2.15
2022-08-21T10:01:54.997Z,2.20
2022-08-21T10:06:03.000Z,2.10
2022-08-21T10:10:14.581Z,2.05
2022-08-21T10:14:37.254Z,1.67
2022-08-21T10:19:12.452Z,1.80
2022-08-21T10:23:36.824Z,1.90
2022-08-21T10:28:03.875Z,1.75
2022-08-21T10:32:25.887Z,2.05
2022-08-21T10:36:39.312Z,1.80
2022-08-21T10:40:44.001Z,1.87
2022-08-21T10:45:10.204Z,1.40
2022-08-21T10:49:30.947Z,2.17
2022-08-21T10:58:03.529Z,1.37
2022-08-21T11:02:32.354Z,1.60
2022-08-21T11:06:38.040Z,1.48
2022-08-21T11:10:55.196Z,1.65
2022-08-21T11:15:03.822Z,1.45
2022-08-21T11:19:15.552Z,1.02
2022-08-21T11:23:32.136Z,1.55
2022-08-21T11:27:42.225Z,1.50
2022-08-21T11:32:05.613Z,1.20
2022-08-21T11:36:21.724Z,1.40
2022-08-21T11:40:30.738Z,1.23
2022-08-21T11:45:03.435Z,1.40
2022-08-21T11:49:28.183Z,1.15
2022-08-21T11:53:38.466Z,1.20
2022-08-21T11:58:11.998Z,1.00
2022-08-21T12:02:24.563Z,1.08
2022-08-21T12:06:41.103Z,1.40
2022-08-21T12:11:05.373Z,0.93
2022-08-21T12:15:13.756Z,1.10
2022-08-21T12:19:32.592Z,1.20
2022-08-21T12:24:03.392Z,1.50
2022-08-21T12:28:12.222Z,1.10
2022-08-21T12:32:14.888Z,1.20
2022-08-21T12:40:31.174Z,1.33
2022-08-21T12:44:54.367Z,1.20
2022-08-21T12:53:33.230Z,1.20
2022-08-21T12:57:39.048Z,1.08
2022-08-21T13:01:53.580Z,1.35
2022-08-21T13:05:56.015Z,1.15
2022-08-21T13:10:17.663Z,0.98
2022-08-21T13:14:27.362Z,1.33
2022-08-21T13:18:32.849Z,0.95
2022-08-21T13:22:42.933Z,0.93
2022-08-21T13:26:46.050Z,1.02
2022-08-21T13:30:56.831Z,0.80
2022-08-21T13:35:08.087Z,1.20
2022-08-21T13:39:13.831Z,1.30
2022-08-21T13:43:23.409Z,1.33
2022-08-21T13:47:25.730Z,1.38
2022-08-21T13:51:28.504Z,1.38
2022-08-21T13:55:43.052Z,1.60
2022-08-21T13:59:45.550Z,1.30
2022-08-21T14:03:50.095Z,0.90
2022-08-21T14:08:09.715Z,1.48
2022-08-21T14:12:35.486Z,1.00
2022-08-21T14:16:54.627Z,0.70
2022-08-21T14:21:10.709Z,1.05
2022-08-21T14:25:19.388Z,1.00
2022-08-21T14:29:25.757Z,0.90
2022-08-21T14:33:33.820Z,0.85
2022-08-21T14:37:40.228Z,0.80
2022-08-21T14:41:44.150Z,0.90
2022-08-21T14:45:48.205Z,0.90
2022-08-21T14:49:53.861Z,0.90
2022-08-21T14:53:57.341Z,0.90
2022-08-21T14:58:06.618Z,0.80
2022-08-21T15:02:13.225Z,1.00
2022-08-21T15:06:22.413Z,0.80
2022-08-21T15:10:25.222Z,0.90
2022-08-21T15:14:31.086Z,1.13
2022-08-21T15:18:34.042Z,0.98
2022-08-21T15:22:37.045Z,0.60
2022-08-21T15:26:39.833Z,0.70
2022-08-21T15:30:48.668Z,0.60
2022-08-21T15:34:56.805Z,1.02
2022-08-21T15:39:03.237Z,0.93
2022-08-21T15:43:06.635Z,0.82
2022-08-21T15:47:22.246Z,0.90
2022-08-21T15:51:24.734Z,0.57
2022-08-21T15:55:26.948Z,0.80
2022-08-21T15:59:40.452Z,0.57
2022-08-21T16:03:46.906Z,0.70
2022-08-21T16:07:50.747Z,0.70
2022-08-21T16:11:52.965Z,1.00
2022-08-21T16:15:55.440Z,0.70
2022-08-21T16:19:58.831Z,1.00
2022-08-21T16:24:01.607Z,1.00
2022-08-21T16:28:08.256Z,1.00
2022-08-21T16:32:14.477Z,1.10
2022-08-21T16:36:19.406Z,1.23
2022-08-21T16:40:23.549Z,1.45
2022-08-21T16:48:48.792Z,1.17
2022-08-21T16:52:54.755Z,1.30
2022-08-21T16:57:01.476Z,1.00
2022-08-21T17:01:10.913Z,1.40
2022-08-21T17:05:14.596Z,1.05
2022-08-21T17:09:17.876Z,0.98
2022-08-21T17:13:21.500Z,1.05
2022-08-21T17:17:26.141Z,1.33
2022-08-21T17:21:28.784Z,1.15
2022-08-21T17:25:32.144Z,1.27
2022-08-21T17:33:50.833Z,1.00
2022-08-21T17:37:54.522Z,1.20
2022-08-21T17:42:01.673Z,1.40
2022-08-21T17:46:05.074Z,1.45
2022-08-21T17:50:10.788Z,1.00
2022-08-21T17:54:13.780Z,1.33
2022-08-21T17:58:16.705Z,1.20
2022-08-21T18:02:19.747Z,1.15
2022-08-21T18:10:25.850Z,1.25
2022-08-21T18:14:32.493Z,1.40
2022-08-21T18:18:42.632Z,1.27
2022-08-21T18:22:46.930Z,1.75
2022-08-21T18:26:50.556Z,1.42
2022-08-21T18:30:54.430Z,1.50
2022-08-21T18:39:19.491Z,1.30
2022-08-21T18:43:23.920Z,1.85
2022-08-21T18:47:48.830Z,1.77
2022-08-21T18:51:51.576Z,1.35
2022-08-21T18:55:54.759Z,1.60
2022-08-21T18:59:59.724Z,1.85
2022-08-21T19:04:04.521Z,1.58
2022-08-21T19:08:07.142Z,0.98
2022-08-21T19:12:15.100Z,1.33
2022-08-21T19:16:20.946Z,1.40
2022-08-21T19:20:31.685Z,1.40
2022-08-21T19:24:35.620Z,1.60
2022-08-21T19:32:51.742Z,1.40
2022-08-21T19:36:59.668Z,1.38
2022-08-21T19:41:05.014Z,1.90
2022-08-21T19:45:15.945Z,1.23
2022-08-21T19:49:22.998Z,1.10
2022-08-21T19:53:26.853Z,1.10
2022-08-21T19:57:30.108Z,1.20
2022-08-21T20:01:39.943Z,1.20
2022-08-21T20:05:44.457Z,1.10
2022-08-21T20:09:47.581Z,1.10
2022-08-21T20:14:30.891Z,1.20
2022-08-21T20:18:34.885Z,1.40
2022-08-21T20:22:40.072Z,1.70
2022-08-21T20:26:48.650Z,1.30
2022-08-21T20:30:58.967Z,1.55
2022-08-21T20:35:04.389Z,1.63
2022-08-21T20:39:11.218Z,1.73
2022-08-21T20:43:17.315Z,1.80
2022-08-21T20:47:20.808Z,2.00
2022-08-21T20:51:40.353Z,1.50
2022-08-21T20:55:47.936Z,1.38
2022-08-21T20:59:53.464Z,1.60
2022-08-21T21:04:03.861Z,1.77
2022-08-21T21:08:06.167Z,1.60
2022-08-21T21:12:17.303Z,2.22
2022-08-21T21:16:37.865Z,1.50
2022-08-21T21:21:16.141Z,1.40
2022-08-21T21:25:40.533Z,1.70
2022-08-21T21:29:52.563Z,1.75
2022-08-21T21:33:56.534Z,1.58
2022-08-21T21:38:03.445Z,1.58
2022-08-21T21:42:10.372Z,1.30
2022-08-21T21:46:37.218Z,1.52
2022-08-21T21:50:54.363Z,1.40
2022-08-21T21:55:25.480Z,1.70
2022-08-21T21:59:51.599Z,1.95
2022-08-21T22:04:23.548Z,1.63
2022-08-21T22:08:36.795Z,2.45
2022-08-21T22:13:09.897Z,1.70
2022-08-21T22:17:28.267Z,1.60
2022-08-21T22:21:41.668Z,1.55
2022-08-21T22:25:49.889Z,1.40
2022-08-21T22:29:57.561Z,1.30
2022-08-21T22:34:19.878Z,1.30
2022-08-21T22:38:37.283Z,1.13
2022-08-21T22:42:41.954Z,1.15
2022-08-21T22:46:51.884Z,1.50
2022-08-21T22:51:05.882Z,1.35
2022-08-21T22:55:24.697Z,1.63
2022-08-21T22:59:37.307Z,1.30
2022-08-21T23:04:08.276Z,1.60
2022-08-21T23:08:24.051Z,1.97
2022-08-21T23:12:36.282Z,1.45
2022-08-21T23:16:58.442Z,1.77
2022-08-21T23:21:12.644Z,1.63
2022-08-21T23:25:46.089Z,1.67
2022-08-21T23:30:15.938Z,1.92
2022-08-21T23:34:51.103Z,1.60
2022-08-21T23:39:12.512Z,1.77
2022-08-21T23:43:37.158Z,1.67
2022-08-21T23:52:01.546Z,1.80
2022-08-21T23:56:28.491Z,1.83
